sensor_id;sensor_type;location;lat;lon;timestamp;pressure;altitude;pressure_sealevel;temperature;humidity
63281;BME280;49406;51.044;3.766;2022-12-24T00:01:58;100904.95;;;10.19;100.00
63281;BME280;49406;51.044;3.766;2022-12-24T00:04:33;100905.16;;;10.21;100.00
63281;BME280;49406;51.044;3.766;2022-12-24T00:07:08;100906.05;;;10.22;100.00
63281;BME280;49406;51.044;3.766;2022-12-24T00:09:42;100905.02;;;10.22;100.00
63281;BME280;49406;51.044;3.766;2022-12-24T00:12:17;100911.89;;;10.25;100.00
63281;BME280;49406;51.044;3.766;2022-12-24T00:14:52;100916.44;;;10.27;100.00
63281;BME280;49406;51.044;3.766;2022-12-24T00:17:26;100920.99;;;10.28;100.00
63281;BME280;49406;51.044;3.766;2022-12-24T00:19:59;100919.44;;;10.30;100.00
63281;BME280;49406;51.044;3.766;2022-12-24T00:22:34;100922.08;;;10.32;100.00
63281;BME280;49406;51.044;3.766;2022-12-24T00:25:10;100918.97;;;10.37;100.00
63281;BME280;49406;51.044;3.766;2022-12-24T00:27:45;100918.83;;;10.40;100.00
63281;BME280;49406;51.044;3.766;2022-12-24T00:30:19;100913.66;;;10.45;100.00
63281;BME280;49406;51.044;3.766;2022-12-24T00:32:54;100919.80;;;10.49;100.00
63281;BME280;49406;51.044;3.766;2022-12-24T00:35:29;100929.61;;;10.52;100.00
63281;BME280;49406;51.044;3.766;2022-12-24T00:38:04;100926.15;;;10.56;100.00
63281;BME280;49406;51.044;3.766;2022-12-24T00:40:39;100929.69;;;10.58;100.00
63281;BME280;49406;51.044;3.766;2022-12-24T00:43:13;100931.64;;;10.61;100.00
63281;BME280;49406;51.044;3.766;2022-12-24T00:45:48;100929.73;;;10.62;100.00
63281;BME280;49406;51.044;3.766;2022-12-24T00:48:21;100932.13;;;10.59;100.00
63281;BME280;49406;51.044;3.766;2022-12-24T00:50:56;100932.78;;;10.55;100.00
63281;BME280;49406;51.044;3.766;2022-12-24T00:53:30;100938.88;;;10.53;100.00
63281;BME280;49406;51.044;3.766;2022-12-24T00:56:06;100937.98;;;10.49;100.00
63281;BME280;49406;51.044;3.766;2022-12-24T00:58:41;100943.38;;;10.46;100.00
63281;BME280;49406;51.044;3.766;2022-12-24T01:01:16;100940.73;;;10.45;100.00
63281;BME280;49406;51.044;3.766;2022-12-24T01:03:51;100939.86;;;10.44;100.00
63281;BME280;49406;51.044;3.766;2022-12-24T01:06:46;100940.02;;;10.43;100.00
63281;BME280;49406;51.044;3.766;2022-12-24T01:09:20;100937.56;;;10.41;100.00
63281;BME280;49406;51.044;3.766;2022-12-24T01:11:55;100948.21;;;10.41;100.00
63281;BME280;49406;51.044;3.766;2022-12-24T01:14:30;100951.16;;;10.40;100.00
63281;BME280;49406;51.044;3.766;2022-12-24T01:17:05;100954.09;;;10.36;100.00
63281;BME280;49406;51.044;3.766;2022-12-24T01:19:40;100955.10;;;10.32;100.00
63281;BME280;49406;51.044;3.766;2022-12-24T01:22:14;100958.39;;;10.28;100.00
63281;BME280;49406;51.044;3.766;2022-12-24T01:24:49;100965.33;;;10.25;100.00
63281;BME280;49406;51.044;3.766;2022-12-24T01:27:24;100969.88;;;10.25;100.00
63281;BME280;49406;51.044;3.766;2022-12-24T01:29:57;100971.64;;;10.26;100.00
63281;BME280;49406;51.044;3.766;2022-12-24T01:32:30;100968.27;;;10.23;100.00
63281;BME280;49406;51.044;3.766;2022-12-24T01:35:06;100963.23;;;10.25;100.00
63281;BME280;49406;51.044;3.766;2022-12-24T01:37:40;100970.10;;;10.28;100.00
63281;BME280;49406;51.044;3.766;2022-12-24T01:40:17;100967.48;;;10.29;100.00
63281;BME280;49406;51.044;3.766;2022-12-24T01:43:15;100974.17;;;10.35;100.00
63281;BME280;49406;51.044;3.766;2022-12-24T01:45:57;100971.38;;;10.35;100.00
63281;BME280;49406;51.044;3.766;2022-12-24T01:48:36;100978.02;;;10.35;100.00
63281;BME280;49406;51.044;3.766;2022-12-24T01:51:18;100973.30;;;10.33;100.00
63281;BME280;49406;51.044;3.766;2022-12-24T01:53:56;100980.40;;;10.28;100.00
63281;BME280;49406;51.044;3.766;2022-12-24T01:56:32;100985.95;;;10.25;100.00
63281;BME280;49406;51.044;3.766;2022-12-24T01:59:11;100985.38;;;10.22;100.00
63281;BME280;49406;51.044;3.766;2022-12-24T02:01:49;100984.48;;;10.21;100.00
63281;BME280;49406;51.044;3.766;2022-12-24T02:04:30;100985.52;;;10.20;100.00
63281;BME280;49406;51.044;3.766;2022-12-24T02:07:06;100992.39;;;10.24;100.00
63281;BME280;49406;51.044;3.766;2022-12-24T02:09:41;100990.69;;;10.25;100.00
63281;BME280;49406;51.044;3.766;2022-12-24T02:12:17;100986.30;;;10.24;100.00
63281;BME280;49406;51.044;3.766;2022-12-24T02:14:52;100995.95;;;10.28;100.00
63281;BME280;49406;51.044;3.766;2022-12-24T02:17:30;100998.07;;;10.30;100.00
63281;BME280;49406;51.044;3.766;2022-12-24T02:20:56;100993.73;;;10.31;100.00
63281;BME280;49406;51.044;3.766;2022-12-24T02:23:52;101000.04;;;10.34;100.00
63281;BME280;49406;51.044;3.766;2022-12-24T02:26:46;101000.05;;;10.37;100.00
63281;BME280;49406;51.044;3.766;2022-12-24T02:32:59;101011.91;;;10.34;100.00
63281;BME280;49406;51.044;3.766;2022-12-24T02:35:45;101010.66;;;10.31;100.00
63281;BME280;49406;51.044;3.766;2022-12-24T02:38:25;101013.95;;;10.28;100.00
63281;BME280;49406;51.044;3.766;2022-12-24T02:41:04;101012.37;;;10.27;100.00
63281;BME280;49406;51.044;3.766;2022-12-24T02:43:43;101015.66;;;10.25;100.00
63281;BME280;49406;51.044;3.766;2022-12-24T02:46:23;101014.80;;;10.25;100.00
63281;BME280;49406;51.044;3.766;2022-12-24T02:48:57;101021.38;;;10.23;100.00
63281;BME280;49406;51.044;3.766;2022-12-24T02:51:32;101024.00;;;10.22;100.00
63281;BME280;49406;51.044;3.766;2022-12-24T02:54:07;101026.95;;;10.21;100.00
63281;BME280;49406;51.044;3.766;2022-12-24T02:56:53;101021.48;;;10.18;100.00
63281;BME280;49406;51.044;3.766;2022-12-24T02:59:50;101028.24;;;10.14;100.00
63281;BME280;49406;51.044;3.766;2022-12-24T03:02:35;101026.27;;;10.09;100.00
63281;BME280;49406;51.044;3.766;2022-12-24T03:05:22;101030.05;;;10.07;100.00
63281;BME280;49406;51.044;3.766;2022-12-24T03:08:06;101040.34;;;10.05;100.00
63281;BME280;49406;51.044;3.766;2022-12-24T03:10:48;101037.70;;;10.04;100.00
63281;BME280;49406;51.044;3.766;2022-12-24T03:13:27;101040.15;;;10.04;100.00
63281;BME280;49406;51.044;3.766;2022-12-24T03:16:01;101038.36;;;10.01;100.00
63281;BME280;49406;51.044;3.766;2022-12-24T03:18:39;101039.20;;;9.97;100.00
63281;BME280;49406;51.044;3.766;2022-12-24T03:21:19;101040.54;;;9.92;100.00
63281;BME280;49406;51.044;3.766;2022-12-24T03:23:54;101043.78;;;9.89;100.00
63281;BME280;49406;51.044;3.766;2022-12-24T03:26:31;101045.65;;;9.85;100.00
63281;BME280;49406;51.044;3.766;2022-12-24T03:29:07;101043.67;;;9.80;100.00
63281;BME280;49406;51.044;3.766;2022-12-24T03:31:44;101050.25;;;9.76;100.00
63281;BME280;49406;51.044;3.766;2022-12-24T03:34:19;101055.13;;;9.75;100.00
63281;BME280;49406;51.044;3.766;2022-12-24T03:36:54;101054.73;;;9.73;100.00
63281;BME280;49406;51.044;3.766;2022-12-24T03:39:28;101057.15;;;9.72;100.00
63281;BME280;49406;51.044;3.766;2022-12-24T03:42:03;101063.46;;;9.73;100.00
63281;BME280;49406;51.044;3.766;2022-12-24T03:44:38;101062.66;;;9.77;100.00
63281;BME280;49406;51.044;3.766;2022-12-24T03:47:12;101060.95;;;9.79;100.00
63281;BME280;49406;51.044;3.766;2022-12-24T03:49:47;101067.94;;;9.80;100.00
63281;BME280;49406;51.044;3.766;2022-12-24T03:52:22;101069.36;;;9.82;100.00
63281;BME280;49406;51.044;3.766;2022-12-24T03:54:57;101066.23;;;9.82;100.00
63281;BME280;49406;51.044;3.766;2022-12-24T03:57:31;101073.22;;;9.83;100.00
63281;BME280;49406;51.044;3.766;2022-12-24T04:00:05;101079.71;;;9.86;100.00
63281;BME280;49406;51.044;3.766;2022-12-24T04:02:40;101076.42;;;9.87;100.00
63281;BME280;49406;51.044;3.766;2022-12-24T04:05:17;101074.84;;;9.87;100.00
63281;BME280;49406;51.044;3.766;2022-12-24T04:07:52;101073.77;;;9.86;100.00
63281;BME280;49406;51.044;3.766;2022-12-24T04:10:26;101076.02;;;9.83;100.00
63281;BME280;49406;51.044;3.766;2022-12-24T04:13:01;101077.73;;;9.82;100.00
63281;BME280;49406;51.044;3.766;2022-12-24T04:15:36;101075.29;;;9.81;100.00
63281;BME280;49406;51.044;3.766;2022-12-24T04:18:10;101076.64;;;9.77;100.00
63281;BME280;49406;51.044;3.766;2022-12-24T04:20:45;101087.27;;;9.76;100.00
63281;BME280;49406;51.044;3.766;2022-12-24T04:23:20;101092.65;;;9.75;100.00
63281;BME280;49406;51.044;3.766;2022-12-24T04:25:55;101100.86;;;9.74;100.00
63281;BME280;49406;51.044;3.766;2022-12-24T04:28:30;101098.71;;;9.73;100.00
63281;BME280;49406;51.044;3.766;2022-12-24T04:31:07;101099.20;;;9.70;100.00
63281;BME280;49406;51.044;3.766;2022-12-24T04:33:43;101095.17;;;9.70;100.00
63281;BME280;49406;51.044;3.766;2022-12-24T04:36:18;101098.67;;;9.70;100.00
63281;BME280;49406;51.044;3.766;2022-12-24T04:38:53;101096.55;;;9.68;100.00
63281;BME280;49406;51.044;3.766;2022-12-24T04:41:28;101100.91;;;9.68;100.00
63281;BME280;49406;51.044;3.766;2022-12-24T04:44:03;101096.86;;;9.65;100.00
63281;BME280;49406;51.044;3.766;2022-12-24T04:46:38;101099.30;;;9.64;100.00
63281;BME280;49406;51.044;3.766;2022-12-24T04:49:13;101102.77;;;9.63;100.00
63281;BME280;49406;51.044;3.766;2022-12-24T04:51:47;101101.36;;;9.63;100.00
63281;BME280;49406;51.044;3.766;2022-12-24T04:54:20;101103.14;;;9.65;100.00
63281;BME280;49406;51.044;3.766;2022-12-24T04:56:55;101105.48;;;9.69;100.00
63281;BME280;49406;51.044;3.766;2022-12-24T04:59:30;101108.82;;;9.72;100.00
63281;BME280;49406;51.044;3.766;2022-12-24T05:02:04;101112.94;;;9.76;100.00
63281;BME280;49406;51.044;3.766;2022-12-24T05:04:39;101107.36;;;9.77;100.00
63281;BME280;49406;51.044;3.766;2022-12-24T05:07:14;101097.05;;;9.77;100.00
63281;BME280;49406;51.044;3.766;2022-12-24T05:09:47;101101.08;;;9.77;100.00
63281;BME280;49406;51.044;3.766;2022-12-24T05:12:22;101105.59;;;9.75;100.00
63281;BME280;49406;51.044;3.766;2022-12-24T05:14:57;101114.88;;;9.78;100.00
63281;BME280;49406;51.044;3.766;2022-12-24T05:17:31;101115.75;;;9.77;100.00
63281;BME280;49406;51.044;3.766;2022-12-24T05:20:08;101122.03;;;9.77;100.00
63281;BME280;49406;51.044;3.766;2022-12-24T05:22:42;101123.06;;;9.76;100.00
63281;BME280;49406;51.044;3.766;2022-12-24T05:25:37;101119.90;;;9.75;100.00
63281;BME280;49406;51.044;3.766;2022-12-24T05:28:30;101117.44;;;9.74;100.00
63281;BME280;49406;51.044;3.766;2022-12-24T05:31:05;101124.04;;;9.73;100.00
63281;BME280;49406;51.044;3.766;2022-12-24T05:33:39;101122.99;;;9.73;100.00
63281;BME280;49406;51.044;3.766;2022-12-24T05:36:14;101114.77;;;9.72;100.00
63281;BME280;49406;51.044;3.766;2022-12-24T05:38:50;101127.00;;;9.73;100.00
63281;BME280;49406;51.044;3.766;2022-12-24T05:41:24;101133.23;;;9.70;100.00
63281;BME280;49406;51.044;3.766;2022-12-24T05:43:59;101136.41;;;9.72;100.00
63281;BME280;49406;51.044;3.766;2022-12-24T05:46:34;101138.33;;;9.72;100.00
63281;BME280;49406;51.044;3.766;2022-12-24T05:49:09;101127.30;;;9.69;100.00
63281;BME280;49406;51.044;3.766;2022-12-24T05:51:43;101137.71;;;9.65;100.00
63281;BME280;49406;51.044;3.766;2022-12-24T05:54:18;101136.83;;;9.64;100.00
63281;BME280;49406;51.044;3.766;2022-12-24T05:56:53;101136.27;;;9.62;100.00
63281;BME280;49406;51.044;3.766;2022-12-24T05:59:27;101138.92;;;9.65;100.00
63281;BME280;49406;51.044;3.766;2022-12-24T06:02:02;101140.88;;;9.66;100.00
63281;BME280;49406;51.044;3.766;2022-12-24T06:04:37;101142.81;;;9.68;100.00
63281;BME280;49406;51.044;3.766;2022-12-24T06:07:10;101142.13;;;9.69;100.00
63281;BME280;49406;51.044;3.766;2022-12-24T06:09:44;101142.34;;;9.71;100.00
63281;BME280;49406;51.044;3.766;2022-12-24T06:12:19;101149.86;;;9.72;100.00
63281;BME280;49406;51.044;3.766;2022-12-24T06:14:54;101148.31;;;9.73;100.00
63281;BME280;49406;51.044;3.766;2022-12-24T06:17:28;101151.97;;;9.73;100.00
63281;BME280;49406;51.044;3.766;2022-12-24T06:20:03;101151.16;;;9.75;100.00
63281;BME280;49406;51.044;3.766;2022-12-24T06:22:38;101156.73;;;9.74;100.00
63281;BME280;49406;51.044;3.766;2022-12-24T06:25:12;101157.79;;;9.75;100.00
63281;BME280;49406;51.044;3.766;2022-12-24T06:27:47;101160.41;;;9.75;100.00
63281;BME280;49406;51.044;3.766;2022-12-24T06:30:20;101162.36;;;9.77;100.00
63281;BME280;49406;51.044;3.766;2022-12-24T06:32:53;101166.04;;;9.78;100.00
63281;BME280;49406;51.044;3.766;2022-12-24T06:35:28;101169.93;;;9.81;100.00
63281;BME280;49406;51.044;3.766;2022-12-24T06:38:04;101167.14;;;9.81;100.00
63281;BME280;49406;51.044;3.766;2022-12-24T06:40:39;101172.17;;;9.80;100.00
63281;BME280;49406;51.044;3.766;2022-12-24T06:43:13;101172.31;;;9.77;100.00
63281;BME280;49406;51.044;3.766;2022-12-24T06:45:48;101177.00;;;9.75;100.00
63281;BME280;49406;51.044;3.766;2022-12-24T06:48:23;101176.91;;;9.72;100.00
63281;BME280;49406;51.044;3.766;2022-12-24T06:50:57;101180.87;;;9.68;100.00
63281;BME280;49406;51.044;3.766;2022-12-24T06:53:34;101180.31;;;9.65;100.00
63281;BME280;49406;51.044;3.766;2022-12-24T06:56:11;101174.04;;;9.66;100.00
63281;BME280;49406;51.044;3.766;2022-12-24T06:58:46;101183.65;;;9.67;100.00
63281;BME280;49406;51.044;3.766;2022-12-24T07:01:22;101182.29;;;9.69;100.00
63281;BME280;49406;51.044;3.766;2022-12-24T07:03:57;101189.31;;;9.72;100.00
63281;BME280;49406;51.044;3.766;2022-12-24T07:06:31;101187.09;;;9.74;100.00
63281;BME280;49406;51.044;3.766;2022-12-24T07:09:06;101186.66;;;9.78;100.00
63281;BME280;49406;51.044;3.766;2022-12-24T07:11:41;101184.08;;;9.81;100.00
63281;BME280;49406;51.044;3.766;2022-12-24T07:14:16;101191.98;;;9.85;100.00
63281;BME280;49406;51.044;3.766;2022-12-24T07:16:51;101197.62;;;9.88;100.00
63281;BME280;49406;51.044;3.766;2022-12-24T07:19:26;101197.70;;;9.92;100.00
63281;BME280;49406;51.044;3.766;2022-12-24T07:22:01;101196.35;;;9.94;100.00
63281;BME280;49406;51.044;3.766;2022-12-24T07:24:36;101199.83;;;9.94;100.00
63281;BME280;49406;51.044;3.766;2022-12-24T07:27:11;101209.05;;;9.91;100.00
63281;BME280;49406;51.044;3.766;2022-12-24T07:29:45;101207.77;;;9.89;100.00
63281;BME280;49406;51.044;3.766;2022-12-24T07:32:21;101206.80;;;9.83;100.00
63281;BME280;49406;51.044;3.766;2022-12-24T07:34:55;101217.95;;;9.81;100.00
63281;BME280;49406;51.044;3.766;2022-12-24T07:37:30;101228.39;;;9.78;100.00
63281;BME280;49406;51.044;3.766;2022-12-24T07:40:07;101219.10;;;9.76;100.00
63281;BME280;49406;51.044;3.766;2022-12-24T07:42:42;101223.30;;;9.77;100.00
63281;BME280;49406;51.044;3.766;2022-12-24T07:45:17;101232.21;;;9.78;100.00
63281;BME280;49406;51.044;3.766;2022-12-24T07:47:51;101234.48;;;9.78;100.00
63281;BME280;49406;51.044;3.766;2022-12-24T07:50:26;101235.55;;;9.78;100.00
63281;BME280;49406;51.044;3.766;2022-12-24T07:52:59;101232.94;;;9.79;100.00
63281;BME280;49406;51.044;3.766;2022-12-24T07:55:33;101242.89;;;9.80;100.00
63281;BME280;49406;51.044;3.766;2022-12-24T07:58:08;101249.21;;;9.82;100.00
63281;BME280;49406;51.044;3.766;2022-12-24T08:00:43;101249.42;;;9.84;100.00
63281;BME280;49406;51.044;3.766;2022-12-24T08:03:19;101248.55;;;9.84;100.00
63281;BME280;49406;51.044;3.766;2022-12-24T08:05:54;101254.14;;;9.83;100.00
63281;BME280;49406;51.044;3.766;2022-12-24T08:08:30;101262.48;;;9.81;100.00
63281;BME280;49406;51.044;3.766;2022-12-24T08:11:06;101264.90;;;9.80;100.00
63281;BME280;49406;51.044;3.766;2022-12-24T08:13:41;101274.66;;;9.79;100.00
63281;BME280;49406;51.044;3.766;2022-12-24T08:16:16;101281.62;;;9.77;100.00
63281;BME280;49406;51.044;3.766;2022-12-24T08:18:50;101287.59;;;9.79;100.00
63281;BME280;49406;51.044;3.766;2022-12-24T08:21:25;101294.58;;;9.79;100.00
63281;BME280;49406;51.044;3.766;2022-12-24T08:24:00;101297.25;;;9.83;100.00
63281;BME280;49406;51.044;3.766;2022-12-24T08:26:34;101294.18;;;9.87;100.00
63281;BME280;49406;51.044;3.766;2022-12-24T08:29:09;101289.75;;;9.92;100.00
63281;BME280;49406;51.044;3.766;2022-12-24T08:31:42;101300.46;;;9.95;100.00
63281;BME280;49406;51.044;3.766;2022-12-24T08:34:17;101308.19;;;9.98;100.00
63281;BME280;49406;51.044;3.766;2022-12-24T08:36:52;101305.23;;;9.99;100.00
63281;BME280;49406;51.044;3.766;2022-12-24T08:39:26;101310.11;;;9.98;100.00
63281;BME280;49406;51.044;3.766;2022-12-24T08:41:59;101313.61;;;9.99;100.00
63281;BME280;49406;51.044;3.766;2022-12-24T08:44:34;101316.91;;;9.97;100.00
63281;BME280;49406;51.044;3.766;2022-12-24T08:47:08;101324.20;;;9.94;100.00
63281;BME280;49406;51.044;3.766;2022-12-24T08:49:43;101328.34;;;9.91;100.00
63281;BME280;49406;51.044;3.766;2022-12-24T08:52:18;101327.04;;;9.88;100.00
63281;BME280;49406;51.044;3.766;2022-12-24T08:54:52;101323.17;;;9.87;100.00
63281;BME280;49406;51.044;3.766;2022-12-24T08:57:27;101323.33;;;9.86;100.00
63281;BME280;49406;51.044;3.766;2022-12-24T09:00:03;101333.64;;;9.86;100.00
63281;BME280;49406;51.044;3.766;2022-12-24T09:02:38;101335.90;;;9.86;100.00
63281;BME280;49406;51.044;3.766;2022-12-24T09:05:13;101341.11;;;9.85;100.00
63281;BME280;49406;51.044;3.766;2022-12-24T09:07:47;101343.06;;;9.86;100.00
63281;BME280;49406;51.044;3.766;2022-12-24T09:10:22;101348.30;;;9.86;100.00
63281;BME280;49406;51.044;3.766;2022-12-24T09:12:58;101348.02;;;9.90;100.00
63281;BME280;49406;51.044;3.766;2022-12-24T09:15:33;101352.11;;;9.93;100.00
63281;BME280;49406;51.044;3.766;2022-12-24T09:18:08;101353.05;;;9.97;100.00
63281;BME280;49406;51.044;3.766;2022-12-24T09:20:42;101361.86;;;10.01;100.00
63281;BME280;49406;51.044;3.766;2022-12-24T09:23:17;101369.29;;;10.06;100.00
63281;BME280;49406;51.044;3.766;2022-12-24T09:25:52;101366.23;;;10.10;100.00
63281;BME280;49406;51.044;3.766;2022-12-24T09:28:26;101369.44;;;10.14;100.00
63281;BME280;49406;51.044;3.766;2022-12-24T09:31:03;101371.26;;;10.18;100.00
63281;BME280;49406;51.044;3.766;2022-12-24T09:33:40;101373.73;;;10.20;100.00
63281;BME280;49406;51.044;3.766;2022-12-24T09:36:16;101388.08;;;10.20;100.00
63281;BME280;49406;51.044;3.766;2022-12-24T09:38:49;101389.11;;;10.19;100.00
63281;BME280;49406;51.044;3.766;2022-12-24T09:41:35;101388.58;;;10.18;100.00
63281;BME280;49406;51.044;3.766;2022-12-24T09:44:31;101392.58;;;10.17;100.00
63281;BME280;49406;51.044;3.766;2022-12-24T09:47:15;101396.24;;;10.18;100.00
63281;BME280;49406;51.044;3.766;2022-12-24T09:49:56;101396.74;;;10.16;100.00
63281;BME280;49406;51.044;3.766;2022-12-24T09:52:35;101396.39;;;10.16;100.00
63281;BME280;49406;51.044;3.766;2022-12-24T09:55:22;101402.33;;;10.16;100.00
63281;BME280;49406;51.044;3.766;2022-12-24T09:57:59;101400.39;;;10.15;100.00
63281;BME280;49406;51.044;3.766;2022-12-24T10:00:37;101397.06;;;10.14;100.00
63281;BME280;49406;51.044;3.766;2022-12-24T10:03:15;101391.27;;;10.14;100.00
63281;BME280;49406;51.044;3.766;2022-12-24T10:06:00;101388.67;;;10.14;100.00
63281;BME280;49406;51.044;3.766;2022-12-24T10:08:38;101389.70;;;10.14;100.00
63281;BME280;49406;51.044;3.766;2022-12-24T10:11:21;101391.80;;;10.13;100.00
63281;BME280;49406;51.044;3.766;2022-12-24T10:14:13;101394.23;;;10.12;100.00
63281;BME280;49406;51.044;3.766;2022-12-24T10:16:57;101400.58;;;10.16;100.00
63281;BME280;49406;51.044;3.766;2022-12-24T10:19:42;101399.80;;;10.21;100.00
63281;BME280;49406;51.044;3.766;2022-12-24T10:22:23;101401.17;;;10.27;100.00
63281;BME280;49406;51.044;3.766;2022-12-24T10:25:03;101403.03;;;10.34;100.00
63281;BME280;49406;51.044;3.766;2022-12-24T10:27:43;101394.50;;;10.36;100.00
63281;BME280;49406;51.044;3.766;2022-12-24T10:30:20;101392.37;;;10.33;100.00
63281;BME280;49406;51.044;3.766;2022-12-24T10:32:54;101398.34;;;10.35;100.00
63281;BME280;49406;51.044;3.766;2022-12-24T10:35:28;101397.12;;;10.35;100.00
63281;BME280;49406;51.044;3.766;2022-12-24T10:38:06;101397.79;;;10.34;100.00
63281;BME280;49406;51.044;3.766;2022-12-24T10:40:44;101406.88;;;10.33;100.00
63281;BME280;49406;51.044;3.766;2022-12-24T10:43:22;101412.31;;;10.34;100.00
63281;BME280;49406;51.044;3.766;2022-12-24T10:46:00;101416.54;;;10.36;100.00
63281;BME280;49406;51.044;3.766;2022-12-24T10:48:39;101416.80;;;10.41;100.00
63281;BME280;49406;51.044;3.766;2022-12-24T10:51:20;101412.92;;;10.48;100.00
63281;BME280;49406;51.044;3.766;2022-12-24T10:54:04;101412.75;;;10.59;100.00
63281;BME280;49406;51.044;3.766;2022-12-24T10:56:43;101406.09;;;10.69;100.00
63281;BME280;49406;51.044;3.766;2022-12-24T10:59:27;101412.68;;;10.76;100.00
63281;BME280;49406;51.044;3.766;2022-12-24T11:02:02;101420.48;;;10.82;100.00
63281;BME280;49406;51.044;3.766;2022-12-24T11:04:52;101414.94;;;10.86;100.00
63281;BME280;49406;51.044;3.766;2022-12-24T11:07:28;101417.76;;;10.87;100.00
63281;BME280;49406;51.044;3.766;2022-12-24T11:10:06;101411.45;;;10.87;100.00
63281;BME280;49406;51.044;3.766;2022-12-24T11:12:45;101414.63;;;10.88;100.00
63281;BME280;49406;51.044;3.766;2022-12-24T11:15:23;101415.98;;;10.86;100.00
63281;BME280;49406;51.044;3.766;2022-12-24T11:18:01;101411.23;;;10.83;100.00
63281;BME280;49406;51.044;3.766;2022-12-24T11:20:37;101409.63;;;10.81;100.00
63281;BME280;49406;51.044;3.766;2022-12-24T11:23:12;101410.71;;;10.83;100.00
63281;BME280;49406;51.044;3.766;2022-12-24T11:25:50;101405.00;;;10.89;100.00
63281;BME280;49406;51.044;3.766;2022-12-24T11:28:27;101410.98;;;10.90;100.00
63281;BME280;49406;51.044;3.766;2022-12-24T11:31:04;101417.44;;;10.89;100.00
63281;BME280;49406;51.044;3.766;2022-12-24T11:33:48;101412.36;;;10.89;100.00
63281;BME280;49406;51.044;3.766;2022-12-24T11:36:25;101411.52;;;10.90;100.00
63281;BME280;49406;51.044;3.766;2022-12-24T11:39:03;101418.30;;;10.98;100.00
63281;BME280;49406;51.044;3.766;2022-12-24T11:41:36;101420.95;;;11.11;100.00
63281;BME280;49406;51.044;3.766;2022-12-24T11:44:12;101427.66;;;11.27;100.00
63281;BME280;49406;51.044;3.766;2022-12-24T11:46:46;101428.55;;;11.40;100.00
63281;BME280;49406;51.044;3.766;2022-12-24T11:49:26;101424.13;;;11.51;100.00
63281;BME280;49406;51.044;3.766;2022-12-24T11:52:22;101421.30;;;11.59;100.00
63281;BME280;49406;51.044;3.766;2022-12-24T11:55:11;101424.69;;;11.65;100.00
63281;BME280;49406;51.044;3.766;2022-12-24T11:57:55;101425.04;;;11.65;100.00
63281;BME280;49406;51.044;3.766;2022-12-24T12:00:31;101427.67;;;11.66;100.00
63281;BME280;49406;51.044;3.766;2022-12-24T12:03:12;101428.90;;;11.66;100.00
63281;BME280;49406;51.044;3.766;2022-12-24T12:05:55;101433.61;;;11.65;100.00
63281;BME280;49406;51.044;3.766;2022-12-24T12:08:32;101433.79;;;11.64;100.00
63281;BME280;49406;51.044;3.766;2022-12-24T12:11:12;101433.80;;;11.66;100.00
63281;BME280;49406;51.044;3.766;2022-12-24T12:13:48;101429.58;;;11.64;100.00
63281;BME280;49406;51.044;3.766;2022-12-24T12:16:26;101438.30;;;11.61;100.00
63281;BME280;49406;51.044;3.766;2022-12-24T12:19:25;101432.78;;;11.56;100.00
63281;BME280;49406;51.044;3.766;2022-12-24T12:22:04;101435.55;;;11.54;100.00
63281;BME280;49406;51.044;3.766;2022-12-24T12:24:45;101434.69;;;11.54;100.00
63281;BME280;49406;51.044;3.766;2022-12-24T12:27:23;101431.56;;;11.57;100.00
63281;BME280;49406;51.044;3.766;2022-12-24T12:30:04;101437.27;;;11.61;100.00
63281;BME280;49406;51.044;3.766;2022-12-24T12:32:43;101436.98;;;11.67;100.00
63281;BME280;49406;51.044;3.766;2022-12-24T12:35:24;101433.53;;;11.72;100.00
63281;BME280;49406;51.044;3.766;2022-12-24T12:38:02;101434.28;;;11.76;100.00
63281;BME280;49406;51.044;3.766;2022-12-24T12:44:03;101438.23;;;11.81;100.00
63281;BME280;49406;51.044;3.766;2022-12-24T12:46:58;101436.52;;;11.85;100.00
63281;BME280;49406;51.044;3.766;2022-12-24T12:49:35;101429.91;;;11.89;100.00
63281;BME280;49406;51.044;3.766;2022-12-24T12:52:20;101430.99;;;11.92;100.00
63281;BME280;49406;51.044;3.766;2022-12-24T12:55:05;101438.23;;;11.94;100.00
63281;BME280;49406;51.044;3.766;2022-12-24T12:57:49;101441.05;;;11.97;100.00
63281;BME280;49406;51.044;3.766;2022-12-24T13:00:28;101444.61;;;12.01;100.00
63281;BME280;49406;51.044;3.766;2022-12-24T13:03:29;101439.91;;;12.04;100.00
63281;BME280;49406;51.044;3.766;2022-12-24T13:06:20;101435.04;;;12.08;100.00
63281;BME280;49406;51.044;3.766;2022-12-24T13:09:12;101434.87;;;12.09;100.00
63281;BME280;49406;51.044;3.766;2022-12-24T13:12:09;101431.21;;;12.10;100.00
63281;BME280;49406;51.044;3.766;2022-12-24T13:14:59;101434.78;;;12.14;100.00
63281;BME280;49406;51.044;3.766;2022-12-24T13:17:57;101431.64;;;12.15;100.00
63281;BME280;49406;51.044;3.766;2022-12-24T13:20:39;101429.89;;;12.16;100.00
63281;BME280;49406;51.044;3.766;2022-12-24T13:23:18;101431.27;;;12.14;100.00
63281;BME280;49406;51.044;3.766;2022-12-24T13:25:55;101432.80;;;12.10;100.00
63281;BME280;49406;51.044;3.766;2022-12-24T13:28:35;101434.30;;;12.05;100.00
63281;BME280;49406;51.044;3.766;2022-12-24T13:31:29;101433.56;;;12.00;100.00
63281;BME280;49406;51.044;3.766;2022-12-24T13:34:05;101434.59;;;11.98;100.00
63281;BME280;49406;51.044;3.766;2022-12-24T13:37:10;101434.20;;;11.94;100.00
63281;BME280;49406;51.044;3.766;2022-12-24T13:40:13;101439.23;;;11.92;100.00
63281;BME280;49406;51.044;3.766;2022-12-24T13:43:08;101437.60;;;11.88;100.00
63281;BME280;49406;51.044;3.766;2022-12-24T13:45:49;101445.07;;;11.81;100.00
63281;BME280;49406;51.044;3.766;2022-12-24T13:48:30;101451.80;;;11.76;100.00